Terminal Aerodrome Forecast
Issued by NWS

Home | Current Version | Previous Version | Text Only | Print | Product List | Glossary On
Versions: 1 2 3 4 5 6 7 8 9 10 11 12 13 14 15
000
FTUS46 KSEW 231100
TAFHQM
TAF
KHQM 231128Z 2312/2412 00000KT 3/4SM BR OVC003
     FM231600 00000KT 2SM BR OVC005
     FM231800 21006KT P6SM OVC008
     FM232100 26010KT P6SM SCT012
     FM240200 26006KT P6SM OVC004
     FM240900 VRB03KT 2SM BR OVC003=

USA.gov is the U.S. government's official web portal to all federal, state and local government web resources and services.